Arviat, Canada
Current Conditions -  °F | °C
As of 12:41 AM on Friday 19 Dec 2014 (Local Time) from CYEK Reporting Station
Light Snow Light Snow  
Wind Chill: -16°   Ceiling: 500
Heat Index: -2°   Visibility: 6mi
Dew Point: -6°   Wind: 7mph
Humidity: 85%   Direction: 250°WSW
Pressure: 29.93"   Gusts: NA
Location:  61.12°N, 94.05°W
Report Text: CYEK 190641Z AUTO 25006KT 6SM -SN BKN005 OVC008 M19/M21 A2993 RMK SLP138
Loading
Personal Weather Stations






























Interactive Weather Map New forecast layout! Learn more

10-Day Weather Forecast

Advertisements
Track Severe Weather on mobile